PWSweather.com
Personal Weather Stations
Station Observations
UWIDEPER1
Brown County, Depere, WI 54115

Brown CountyDepere, WI 54115

Lat: 44.44, Lon: -88.05

Elevation: 610

Station Type: Acurite 5in1

www.depereweather.com

High Low Average
Temperature 19.4°F-7.0°C 5.0°F-15.0°C 13.7°F-10.2°C
Dew Point 15.9°F-8.9°C -0.1°F-17.8°C 6.1°F-14.4°C
Winds 11.5 mph 18.5 kmh 2.3 mph 3.7 kmh 6.0 mph WSW9.7 kmh WSW
Wind Gusts 17.3 mph27.8 kmh 2.3 mph3.7 kmh 8.0 mph12.9 kmh
Humidity 86% 53% 72%
Pressure 30.55 in1034.5 mb 29.96 in1014.6 mb -
Precipitation 0.00 in0.0 mm - -
Hour Temp Dew Point Humidity Winds Wind Gusts Pressure Precip Precip Rate Daily Precip Total
12:00 AM 19.4°F-7.0°C 15.9°F-8.9°C 86% 6.9 mph NW11.1 kmh NW 11.5 mph18.5 kmh 29.96 in1014.6 mb - 0.00 in0.0 mm 0.00 in0.0 mm
12:10 AM 19.4°F-7.0°C 15.9°F-8.9°C 86% 8.1 mph NW13.0 kmh NW 11.5 mph18.5 kmh 29.96 in1014.6 mb - 0.00 in0.0 mm 0.00 in0.0 mm
12:15 AM 19.4°F-7.0°C 15.9°F-8.9°C 86% 6.9 mph SSE11.1 kmh SSE 11.5 mph18.5 kmh 29.98 in1015.2 mb - 0.00 in0.0 mm 0.00 in0.0 mm
12:20 AM 19.4°F-7.0°C 15.9°F-8.9°C 86% 5.8 mph NW9.3 kmh NW 8.1 mph13.0 kmh 29.97 in1014.9 mb - 0.00 in0.0 mm 0.00 in0.0 mm
12:25 AM 19.4°F-7.0°C 15.6°F-9.1°C 85% 6.9 mph N11.1 kmh N 11.5 mph18.5 kmh 29.97 in1014.9 mb - 0.00 in0.0 mm 0.00 in0.0 mm
12:30 AM 19.4°F-7.0°C 15.1°F-9.4°C 83% 6.9 mph N11.1 kmh N 10.4 mph16.7 kmh 29.98 in1015.2 mb - 0.00 in0.0 mm 0.00 in0.0 mm
12:35 AM 19.4°F-7.0°C 15.1°F-9.4°C 83% 5.8 mph NW9.3 kmh NW 11.5 mph18.5 kmh 29.98 in1015.2 mb - 0.00 in0.0 mm 0.00 in0.0 mm
12:40 AM 19.4°F-7.0°C 15.1°F-9.4°C 83% 6.9 mph NNW11.1 kmh NNW 8.1 mph13.0 kmh 29.99 in1015.6 mb - 0.00 in0.0 mm 0.00 in0.0 mm
12:45 AM 19.4°F-7.0°C 15.1°F-9.4°C 83% 3.5 mph NW5.6 kmh NW 4.6 mph7.4 kmh 29.99 in1015.6 mb - 0.00 in0.0 mm 0.00 in0.0 mm
12:50 AM 19.4°F-7.0°C 15.1°F-9.4°C 83% 5.8 mph WNW9.3 kmh WNW 11.5 mph18.5 kmh 30.00 in1015.9 mb - 0.00 in0.0 mm 0.00 in0.0 mm
12:55 AM 19.4°F-7.0°C 15.1°F-9.4°C 83% 6.9 mph N11.1 kmh N 11.5 mph18.5 kmh 30.00 in1015.9 mb - 0.00 in0.0 mm 0.00 in0.0 mm
01:00 AM 19.4°F-7.0°C 14.5°F-9.7°C 81% 9.2 mph NW14.8 kmh NW 6.9 mph11.1 kmh 30.01 in1016.3 mb - 0.00 in0.0 mm 0.00 in0.0 mm
01:10 AM 17.6°F-8.0°C 12.8°F-10.7°C 81% 6.9 mph NNW11.1 kmh NNW 11.5 mph18.5 kmh 30.01 in1016.3 mb - 0.00 in0.0 mm 0.00 in0.0 mm
01:15 AM 17.6°F-8.0°C 12.8°F-10.7°C 81% 8.1 mph NW13.0 kmh NW 8.1 mph13.0 kmh 30.02 in1016.6 mb - 0.00 in0.0 mm 0.00 in0.0 mm
01:20 AM 17.6°F-8.0°C 12.8°F-10.7°C 81% 6.9 mph NW11.1 kmh NW 9.2 mph14.8 kmh 30.02 in1016.6 mb - 0.00 in0.0 mm 0.00 in0.0 mm
01:25 AM 17.6°F-8.0°C 12.8°F-10.7°C 81% 6.9 mph NW11.1 kmh NW 8.1 mph13.0 kmh 30.02 in1016.6 mb - 0.00 in0.0 mm 0.00 in0.0 mm
01:30 AM 17.6°F-8.0°C 12.8°F-10.7°C 81% 5.8 mph NNW9.3 kmh NNW 5.8 mph9.3 kmh 30.02 in1016.6 mb - 0.00 in0.0 mm 0.00 in0.0 mm
01:35 AM 17.6°F-8.0°C 13.3°F-10.4°C 83% 5.8 mph N9.3 kmh N 8.1 mph13.0 kmh 30.03 in1016.9 mb - 0.00 in0.0 mm 0.00 in0.0 mm
01:40 AM 17.6°F-8.0°C 13.3°F-10.4°C 83% 5.8 mph WNW9.3 kmh WNW 8.1 mph13.0 kmh 30.03 in1016.9 mb - 0.00 in0.0 mm 0.00 in0.0 mm
01:45 AM 17.6°F-8.0°C 13.3°F-10.4°C 83% 3.5 mph NNW5.6 kmh NNW 5.8 mph9.3 kmh 30.04 in1017.3 mb - 0.00 in0.0 mm 0.00 in0.0 mm
01:50 AM 17.6°F-8.0°C 13.3°F-10.4°C 83% 5.8 mph NNW9.3 kmh NNW 13.8 mph22.2 kmh 30.05 in1017.6 mb - 0.00 in0.0 mm 0.00 in0.0 mm
01:55 AM 17.6°F-8.0°C 13.3°F-10.4°C 83% 9.2 mph WNW14.8 kmh WNW 11.5 mph18.5 kmh 30.05 in1017.6 mb - 0.00 in0.0 mm 0.00 in0.0 mm
02:00 AM 17.6°F-8.0°C 13.3°F-10.4°C 83% 6.9 mph NW11.1 kmh NW 10.4 mph16.7 kmh 30.05 in1017.6 mb - 0.00 in0.0 mm 0.00 in0.0 mm
02:10 AM 17.6°F-8.0°C 13.9°F-10.1°C 85% 5.8 mph NW9.3 kmh NW 13.8 mph22.2 kmh 30.07 in1018.3 mb - 0.00 in0.0 mm 0.00 in0.0 mm
02:15 AM 17.6°F-8.0°C 13.9°F-10.1°C 85% 9.2 mph NW14.8 kmh NW 8.1 mph13.0 kmh 30.07 in1018.3 mb - 0.00 in0.0 mm 0.00 in0.0 mm
02:20 AM 17.6°F-8.0°C 13.9°F-10.1°C 85% 6.9 mph NNW11.1 kmh NNW 8.1 mph13.0 kmh 30.07 in1018.3 mb - 0.00 in0.0 mm 0.00 in0.0 mm
02:25 AM 17.6°F-8.0°C 13.9°F-10.1°C 85% 6.9 mph NW11.1 kmh NW 9.2 mph14.8 kmh 30.08 in1018.6 mb - 0.00 in0.0 mm 0.00 in0.0 mm
02:30 AM 17.6°F-8.0°C 13.9°F-10.1°C 85% 6.9 mph NNW11.1 kmh NNW 6.9 mph11.1 kmh 30.07 in1018.3 mb - 0.00 in0.0 mm 0.00 in0.0 mm
02:35 AM 17.6°F-8.0°C 13.9°F-10.1°C 85% 8.1 mph NW13.0 kmh NW 8.1 mph13.0 kmh 30.08 in1018.6 mb - 0.00 in0.0 mm 0.00 in0.0 mm
02:40 AM 15.8°F-9.0°C 12.1°F-11.1°C 85% 8.1 mph W13.0 kmh W 9.2 mph14.8 kmh 30.09 in1019.0 mb - 0.00 in0.0 mm 0.00 in0.0 mm
02:45 AM 15.8°F-9.0°C 12.1°F-11.1°C 85% 5.8 mph WNW9.3 kmh WNW 8.1 mph13.0 kmh 30.09 in1019.0 mb - 0.00 in0.0 mm 0.00 in0.0 mm
02:50 AM 15.8°F-9.0°C 12.1°F-11.1°C 85% 6.9 mph NNE11.1 kmh NNE 10.4 mph16.7 kmh 30.09 in1019.0 mb - 0.00 in0.0 mm 0.00 in0.0 mm
02:55 AM 15.8°F-9.0°C 12.1°F-11.1°C 85% 6.9 mph NW11.1 kmh NW 6.9 mph11.1 kmh 30.09 in1019.0 mb - 0.00 in0.0 mm 0.00 in0.0 mm
03:00 AM 15.8°F-9.0°C 12.1°F-11.1°C 85% 4.6 mph NNW7.4 kmh NNW 5.8 mph9.3 kmh 30.10 in1019.3 mb - 0.00 in0.0 mm 0.00 in0.0 mm
03:10 AM 15.8°F-9.0°C 11.6°F-11.3°C 83% 8.1 mph NW13.0 kmh NW 6.9 mph11.1 kmh 30.11 in1019.6 mb - 0.00 in0.0 mm 0.00 in0.0 mm
03:15 AM 15.8°F-9.0°C 11.6°F-11.3°C 83% 8.1 mph WNW13.0 kmh WNW 12.7 mph20.4 kmh 30.11 in1019.6 mb - 0.00 in0.0 mm 0.00 in0.0 mm
03:20 AM 15.8°F-9.0°C 11.6°F-11.3°C 83% 6.9 mph NNW11.1 kmh NNW 8.1 mph13.0 kmh 30.11 in1019.6 mb - 0.00 in0.0 mm 0.00 in0.0 mm
03:25 AM 15.8°F-9.0°C 11.3°F-11.5°C 82% 8.1 mph NNW13.0 kmh NNW 11.5 mph18.5 kmh 30.11 in1019.6 mb - 0.00 in0.0 mm 0.00 in0.0 mm
03:30 AM 15.8°F-9.0°C 11.0°F-11.7°C 81% 8.1 mph NNW13.0 kmh NNW 10.4 mph16.7 kmh 30.11 in1019.6 mb - 0.00 in0.0 mm 0.00 in0.0 mm
03:35 AM 15.8°F-9.0°C 11.0°F-11.7°C 81% 5.8 mph NNE9.3 kmh NNE 11.5 mph18.5 kmh 30.12 in1020.0 mb - 0.00 in0.0 mm 0.00 in0.0 mm
03:40 AM 15.8°F-9.0°C 11.0°F-11.7°C 81% 4.6 mph NNW7.4 kmh NNW 6.9 mph11.1 kmh 30.13 in1020.3 mb - 0.00 in0.0 mm 0.00 in0.0 mm
03:45 AM 15.8°F-9.0°C 11.0°F-11.7°C 81% 4.6 mph NW7.4 kmh NW 6.9 mph11.1 kmh 30.13 in1020.3 mb - 0.00 in0.0 mm 0.00 in0.0 mm
03:50 AM 15.8°F-9.0°C 11.6°F-11.3°C 83% 5.8 mph NW9.3 kmh NW 10.4 mph16.7 kmh 30.13 in1020.3 mb - 0.00 in0.0 mm 0.00 in0.0 mm
03:55 AM 15.8°F-9.0°C 11.6°F-11.3°C 83% 8.1 mph NW13.0 kmh NW 15.0 mph24.1 kmh 30.13 in1020.3 mb - 0.00 in0.0 mm 0.00 in0.0 mm
04:00 AM 15.8°F-9.0°C 11.0°F-11.7°C 81% 8.1 mph NW13.0 kmh NW 6.9 mph11.1 kmh 30.13 in1020.3 mb - 0.00 in0.0 mm 0.00 in0.0 mm
04:10 AM 15.8°F-9.0°C 11.0°F-11.7°C 81% 9.2 mph NW14.8 kmh NW 11.5 mph18.5 kmh 30.12 in1020.0 mb - 0.00 in0.0 mm 0.00 in0.0 mm
04:15 AM 15.8°F-9.0°C 11.0°F-11.7°C 81% 9.2 mph N14.8 kmh N 8.1 mph13.0 kmh 30.13 in1020.3 mb - 0.00 in0.0 mm 0.00 in0.0 mm
04:20 AM 15.8°F-9.0°C 11.0°F-11.7°C 81% 6.9 mph NNW11.1 kmh NNW 10.4 mph16.7 kmh 30.14 in1020.7 mb - 0.00 in0.0 mm 0.00 in0.0 mm
04:25 AM 15.8°F-9.0°C 11.6°F-11.3°C 83% 5.8 mph W9.3 kmh W 10.4 mph16.7 kmh 30.13 in1020.3 mb - 0.00 in0.0 mm 0.00 in0.0 mm
04:30 AM 15.8°F-9.0°C 11.6°F-11.3°C 83% 6.9 mph ENE11.1 kmh ENE 8.1 mph13.0 kmh 30.13 in1020.3 mb - 0.00 in0.0 mm 0.00 in0.0 mm
04:35 AM 15.8°F-9.0°C 11.6°F-11.3°C 83% 5.8 mph NW9.3 kmh NW 6.9 mph11.1 kmh 30.13 in1020.3 mb - 0.00 in0.0 mm 0.00 in0.0 mm
04:40 AM 15.8°F-9.0°C 11.6°F-11.3°C 83% 4.6 mph N7.4 kmh N 8.1 mph13.0 kmh 30.13 in1020.3 mb - 0.00 in0.0 mm 0.00 in0.0 mm
04:45 AM 15.8°F-9.0°C 11.6°F-11.3°C 83% 6.9 mph NW11.1 kmh NW 10.4 mph16.7 kmh 30.13 in1020.3 mb - 0.00 in0.0 mm 0.00 in0.0 mm
04:50 AM 15.8°F-9.0°C 11.6°F-11.3°C 83% 5.8 mph W9.3 kmh W 15.0 mph24.1 kmh 30.14 in1020.7 mb - 0.00 in0.0 mm 0.00 in0.0 mm
04:55 AM 15.8°F-9.0°C 11.0°F-11.7°C 81% 8.1 mph NW13.0 kmh NW 11.5 mph18.5 kmh 30.14 in1020.7 mb - 0.00 in0.0 mm 0.00 in0.0 mm
05:00 AM 15.8°F-9.0°C 11.0°F-11.7°C 81% 11.5 mph NW18.5 kmh NW 11.5 mph18.5 kmh 30.14 in1020.7 mb - 0.00 in0.0 mm 0.00 in0.0 mm
05:10 AM 15.8°F-9.0°C 11.0°F-11.7°C 81% 6.9 mph E11.1 kmh E 11.5 mph18.5 kmh 30.14 in1020.7 mb - 0.00 in0.0 mm 0.00 in0.0 mm
05:15 AM 15.8°F-9.0°C 11.0°F-11.7°C 81% 10.4 mph E16.7 kmh E 10.4 mph16.7 kmh 30.14 in1020.7 mb - 0.00 in0.0 mm 0.00 in0.0 mm
05:20 AM 15.8°F-9.0°C 11.0°F-11.7°C 81% 9.2 mph NNW14.8 kmh NNW 17.3 mph27.8 kmh 30.14 in1020.7 mb - 0.00 in0.0 mm 0.00 in0.0 mm
05:25 AM 15.8°F-9.0°C 10.4°F-12.0°C 79% 8.1 mph NW13.0 kmh NW 5.8 mph9.3 kmh 30.15 in1021.0 mb - 0.00 in0.0 mm 0.00 in0.0 mm
05:30 AM 14.0°F-10.0°C 9.0°F-12.8°C 80% 5.8 mph N9.3 kmh N 9.2 mph14.8 kmh 30.15 in1021.0 mb - 0.00 in0.0 mm 0.00 in0.0 mm
05:35 AM 14.0°F-10.0°C 9.0°F-12.8°C 80% 8.1 mph NNW13.0 kmh NNW 10.4 mph16.7 kmh 30.16 in1021.3 mb - 0.00 in0.0 mm 0.00 in0.0 mm
05:40 AM 14.0°F-10.0°C 9.2°F-12.7°C 81% 6.9 mph NNW11.1 kmh NNW 9.2 mph14.8 kmh 30.17 in1021.7 mb - 0.00 in0.0 mm 0.00 in0.0 mm
05:45 AM 14.0°F-10.0°C 9.2°F-12.7°C 81% 9.2 mph NW14.8 kmh NW 11.5 mph18.5 kmh 30.17 in1021.7 mb - 0.00 in0.0 mm 0.00 in0.0 mm
05:50 AM 14.0°F-10.0°C 9.0°F-12.8°C 80% 9.2 mph NW14.8 kmh NW 13.8 mph22.2 kmh 30.18 in1022.0 mb - 0.00 in0.0 mm 0.00 in0.0 mm
05:55 AM 14.0°F-10.0°C 8.7°F-12.9°C 79% 9.2 mph WNW14.8 kmh WNW 10.4 mph16.7 kmh 30.18 in1022.0 mb - 0.00 in0.0 mm 0.00 in0.0 mm
06:00 AM 14.0°F-10.0°C 8.7°F-12.9°C 79% 9.2 mph WNW14.8 kmh WNW 11.5 mph18.5 kmh 30.18 in1022.0 mb - 0.00 in0.0 mm 0.00 in0.0 mm
06:10 AM 14.0°F-10.0°C 9.0°F-12.8°C 80% 5.8 mph NW9.3 kmh NW 11.5 mph18.5 kmh 30.19 in1022.4 mb - 0.00 in0.0 mm 0.00 in0.0 mm
06:15 AM 14.0°F-10.0°C 9.0°F-12.8°C 80% 8.1 mph NW13.0 kmh NW 11.5 mph18.5 kmh 30.19 in1022.4 mb - 0.00 in0.0 mm 0.00 in0.0 mm
06:20 AM 14.0°F-10.0°C 9.0°F-12.8°C 80% 6.9 mph NW11.1 kmh NW 8.1 mph13.0 kmh 30.20 in1022.7 mb - 0.00 in0.0 mm 0.00 in0.0 mm
06:25 AM 14.0°F-10.0°C 9.0°F-12.8°C 80% 6.9 mph NNW11.1 kmh NNW 8.1 mph13.0 kmh 30.21 in1023.0 mb - 0.00 in0.0 mm 0.00 in0.0 mm
06:30 AM 14.0°F-10.0°C 9.0°F-12.8°C 80% 4.6 mph WNW7.4 kmh WNW 5.8 mph9.3 kmh 30.21 in1023.0 mb - 0.00 in0.0 mm 0.00 in0.0 mm
06:35 AM 14.0°F-10.0°C 9.0°F-12.8°C 80% 4.6 mph NNW7.4 kmh NNW 12.7 mph20.4 kmh 30.21 in1023.0 mb - 0.00 in0.0 mm 0.00 in0.0 mm
06:40 AM 14.0°F-10.0°C 9.2°F-12.7°C 81% 6.9 mph NW11.1 kmh NW 9.2 mph14.8 kmh 30.21 in1023.0 mb - 0.00 in0.0 mm 0.00 in0.0 mm
06:45 AM 14.0°F-10.0°C 9.0°F-12.8°C 80% 9.2 mph NNW14.8 kmh NNW 17.3 mph27.8 kmh 30.21 in1023.0 mb - 0.00 in0.0 mm 0.00 in0.0 mm
06:50 AM 14.0°F-10.0°C 8.7°F-12.9°C 79% 10.4 mph NW16.7 kmh NW 15.0 mph24.1 kmh 30.21 in1023.0 mb - 0.00 in0.0 mm 0.00 in0.0 mm
06:55 AM 14.0°F-10.0°C 9.0°F-12.8°C 80% 6.9 mph N11.1 kmh N 11.5 mph18.5 kmh 30.21 in1023.0 mb - 0.00 in0.0 mm 0.00 in0.0 mm
07:00 AM 14.0°F-10.0°C 9.0°F-12.8°C 80% 6.9 mph N11.1 kmh N 4.6 mph7.4 kmh 30.22 in1023.4 mb - 0.00 in0.0 mm 0.00 in0.0 mm
07:10 AM 12.2°F-11.0°C 7.2°F-13.8°C 80% 5.8 mph NW9.3 kmh NW 5.8 mph9.3 kmh 30.22 in1023.4 mb - 0.00 in0.0 mm 0.00 in0.0 mm
07:15 AM 12.2°F-11.0°C 7.5°F-13.6°C 81% 6.9 mph NW11.1 kmh NW 9.2 mph14.8 kmh 30.22 in1023.4 mb - 0.00 in0.0 mm 0.00 in0.0 mm
07:20 AM 12.2°F-11.0°C 7.5°F-13.6°C 81% 5.8 mph NW9.3 kmh NW 9.2 mph14.8 kmh 30.22 in1023.4 mb - 0.00 in0.0 mm 0.00 in0.0 mm
07:25 AM 12.2°F-11.0°C 7.2°F-13.8°C 80% 6.9 mph NW11.1 kmh NW 16.1 mph25.9 kmh 30.24 in1024.0 mb - 0.00 in0.0 mm 0.00 in0.0 mm
07:30 AM 12.2°F-11.0°C 7.2°F-13.8°C 80% 6.9 mph WNW11.1 kmh WNW 10.4 mph16.7 kmh 30.23 in1023.7 mb - 0.00 in0.0 mm 0.00 in0.0 mm
07:35 AM 12.2°F-11.0°C 7.2°F-13.8°C 80% 6.9 mph W11.1 kmh W 15.0 mph24.1 kmh 30.24 in1024.0 mb - 0.00 in0.0 mm 0.00 in0.0 mm
07:40 AM 12.2°F-11.0°C 7.2°F-13.8°C 80% 6.9 mph NW11.1 kmh NW 8.1 mph13.0 kmh 30.25 in1024.4 mb - 0.00 in0.0 mm 0.00 in0.0 mm
07:45 AM 12.2°F-11.0°C 7.2°F-13.8°C 80% 6.9 mph NW11.1 kmh NW 8.1 mph13.0 kmh 30.25 in1024.4 mb - 0.00 in0.0 mm 0.00 in0.0 mm
07:50 AM 12.2°F-11.0°C 7.2°F-13.8°C 80% 6.9 mph W11.1 kmh W 9.2 mph14.8 kmh 30.26 in1024.7 mb - 0.00 in0.0 mm 0.00 in0.0 mm
07:55 AM 12.2°F-11.0°C 7.2°F-13.8°C 80% 5.8 mph NW9.3 kmh NW 11.5 mph18.5 kmh 30.26 in1024.7 mb - 0.00 in0.0 mm 0.00 in0.0 mm
08:00 AM 12.2°F-11.0°C 7.2°F-13.8°C 80% 6.9 mph NNW11.1 kmh NNW 8.1 mph13.0 kmh 30.26 in1024.7 mb - 0.00 in0.0 mm 0.00 in0.0 mm
08:10 AM 12.2°F-11.0°C 7.2°F-13.8°C 80% 6.9 mph NW11.1 kmh NW 8.1 mph13.0 kmh 30.27 in1025.1 mb - 0.00 in0.0 mm 0.00 in0.0 mm
08:15 AM 12.2°F-11.0°C 7.2°F-13.8°C 80% 6.9 mph N11.1 kmh N 8.1 mph13.0 kmh 30.28 in1025.4 mb - 0.00 in0.0 mm 0.00 in0.0 mm
08:20 AM 12.2°F-11.0°C 7.2°F-13.8°C 80% 5.8 mph W9.3 kmh W 10.4 mph16.7 kmh 30.28 in1025.4 mb - 0.00 in0.0 mm 0.00 in0.0 mm
08:25 AM 12.2°F-11.0°C 7.2°F-13.8°C 80% 6.9 mph NW11.1 kmh NW 5.8 mph9.3 kmh 30.29 in1025.7 mb - 0.00 in0.0 mm 0.00 in0.0 mm
08:30 AM 12.2°F-11.0°C 7.2°F-13.8°C 80% 3.5 mph NNW5.6 kmh NNW 3.5 mph5.6 kmh 30.29 in1025.7 mb - 0.00 in0.0 mm 0.00 in0.0 mm
08:35 AM 12.2°F-11.0°C 7.2°F-13.8°C 80% 4.6 mph NNE7.4 kmh NNE 10.4 mph16.7 kmh 30.29 in1025.7 mb - 0.00 in0.0 mm 0.00 in0.0 mm
08:40 AM 12.2°F-11.0°C 7.2°F-13.8°C 80% 4.6 mph W7.4 kmh W 6.9 mph11.1 kmh 30.30 in1026.1 mb - 0.00 in0.0 mm 0.00 in0.0 mm
08:45 AM 12.2°F-11.0°C 6.7°F-14.1°C 78% 5.8 mph WNW9.3 kmh WNW 8.1 mph13.0 kmh 30.29 in1025.7 mb - 0.00 in0.0 mm 0.00 in0.0 mm
08:50 AM 12.2°F-11.0°C 6.7°F-14.1°C 78% 6.9 mph NW11.1 kmh NW 6.9 mph11.1 kmh 30.30 in1026.1 mb - 0.00 in0.0 mm 0.00 in0.0 mm
08:55 AM 12.2°F-11.0°C 6.7°F-14.1°C 78% 4.6 mph NNW7.4 kmh NNW 5.8 mph9.3 kmh 30.29 in1025.7 mb - 0.00 in0.0 mm 0.00 in0.0 mm
09:00 AM 12.2°F-11.0°C 6.7°F-14.1°C 78% 8.1 mph WNW13.0 kmh WNW 10.4 mph16.7 kmh 30.30 in1026.1 mb - 0.00 in0.0 mm 0.00 in0.0 mm
09:10 AM 12.2°F-11.0°C 6.7°F-14.1°C 78% 6.9 mph WNW11.1 kmh WNW 9.2 mph14.8 kmh 30.32 in1026.8 mb - 0.00 in0.0 mm 0.00 in0.0 mm
09:15 AM 12.2°F-11.0°C 6.7°F-14.1°C 78% 8.1 mph WNW13.0 kmh WNW 11.5 mph18.5 kmh 30.32 in1026.8 mb - 0.00 in0.0 mm 0.00 in0.0 mm
09:20 AM 12.2°F-11.0°C 6.7°F-14.1°C 78% 6.9 mph NNW11.1 kmh NNW 6.9 mph11.1 kmh 30.32 in1026.8 mb - 0.00 in0.0 mm 0.00 in0.0 mm
09:25 AM 12.2°F-11.0°C 6.7°F-14.1°C 78% 8.1 mph NW13.0 kmh NW 6.9 mph11.1 kmh 30.32 in1026.8 mb - 0.00 in0.0 mm 0.00 in0.0 mm
09:30 AM 12.2°F-11.0°C 6.4°F-14.2°C 77% 5.8 mph NW9.3 kmh NW 6.9 mph11.1 kmh 30.33 in1027.1 mb - 0.00 in0.0 mm 0.00 in0.0 mm
09:35 AM 14.0°F-10.0°C 7.5°F-13.6°C 75% 5.8 mph NW9.3 kmh NW 9.2 mph14.8 kmh 30.33 in1027.1 mb - 0.00 in0.0 mm 0.00 in0.0 mm
09:40 AM 14.0°F-10.0°C 7.2°F-13.8°C 74% 5.8 mph ESE9.3 kmh ESE 6.9 mph11.1 kmh 30.33 in1027.1 mb - 0.00 in0.0 mm 0.00 in0.0 mm
09:45 AM 15.3°F-9.3°C 7.6°F-13.6°C 71% 5.8 mph N9.3 kmh N 8.1 mph13.0 kmh 30.33 in1027.1 mb - 0.00 in0.0 mm 0.00 in0.0 mm
09:50 AM 15.4°F-9.2°C 7.4°F-13.7°C 70% 6.9 mph NW11.1 kmh NW 6.9 mph11.1 kmh 30.33 in1027.1 mb - 0.00 in0.0 mm 0.00 in0.0 mm
09:55 AM 15.8°F-9.0°C 7.7°F-13.5°C 70% 5.8 mph N9.3 kmh N 9.2 mph14.8 kmh 30.33 in1027.1 mb - 0.00 in0.0 mm 0.00 in0.0 mm
10:00 AM 15.8°F-9.0°C 7.4°F-13.7°C 69% 8.1 mph NW13.0 kmh NW 8.1 mph13.0 kmh 30.34 in1027.4 mb - 0.00 in0.0 mm 0.00 in0.0 mm
10:10 AM 15.8°F-9.0°C 7.7°F-13.5°C 70% 9.2 mph NW14.8 kmh NW 13.8 mph22.2 kmh 30.34 in1027.4 mb - 0.00 in0.0 mm 0.00 in0.0 mm
10:15 AM 15.8°F-9.0°C 7.7°F-13.5°C 70% 8.1 mph NW13.0 kmh NW 9.2 mph14.8 kmh 30.34 in1027.4 mb - 0.00 in0.0 mm 0.00 in0.0 mm
10:20 AM 15.8°F-9.0°C 7.7°F-13.5°C 70% 8.1 mph WNW13.0 kmh WNW 11.5 mph18.5 kmh 30.34 in1027.4 mb - 0.00 in0.0 mm 0.00 in0.0 mm
10:25 AM 14.0°F-10.0°C 6.0°F-14.4°C 70% 10.4 mph NW16.7 kmh NW 15.0 mph24.1 kmh 30.34 in1027.4 mb - 0.00 in0.0 mm 0.00 in0.0 mm
10:30 AM 15.8°F-9.0°C 7.7°F-13.5°C 70% 8.1 mph NNW13.0 kmh NNW 11.5 mph18.5 kmh 30.34 in1027.4 mb - 0.00 in0.0 mm 0.00 in0.0 mm
10:35 AM 15.8°F-9.0°C 7.7°F-13.5°C 70% 8.1 mph N13.0 kmh N 5.8 mph9.3 kmh 30.34 in1027.4 mb - 0.00 in0.0 mm 0.00 in0.0 mm
10:40 AM 15.8°F-9.0°C 7.7°F-13.5°C 70% 5.8 mph NNE9.3 kmh NNE 8.1 mph13.0 kmh 30.34 in1027.4 mb - 0.00 in0.0 mm 0.00 in0.0 mm
10:45 AM 15.8°F-9.0°C 6.4°F-14.2°C 66% 6.9 mph E11.1 kmh E 8.1 mph13.0 kmh 30.34 in1027.4 mb - 0.00 in0.0 mm 0.00 in0.0 mm
10:50 AM 15.8°F-9.0°C 6.4°F-14.2°C 66% 8.1 mph NW13.0 kmh NW 11.5 mph18.5 kmh 30.34 in1027.4 mb - 0.00 in0.0 mm 0.00 in0.0 mm
10:55 AM 15.8°F-9.0°C 6.4°F-14.2°C 66% 5.8 mph N9.3 kmh N 5.8 mph9.3 kmh 30.35 in1027.8 mb - 0.00 in0.0 mm 0.00 in0.0 mm
11:00 AM 15.8°F-9.0°C 6.1°F-14.4°C 65% 9.2 mph NW14.8 kmh NW 11.5 mph18.5 kmh 30.35 in1027.8 mb - 0.00 in0.0 mm 0.00 in0.0 mm
11:10 AM 15.8°F-9.0°C 6.1°F-14.4°C 65% 6.9 mph NW11.1 kmh NW 4.6 mph7.4 kmh 30.34 in1027.4 mb - 0.00 in0.0 mm 0.00 in0.0 mm
11:15 AM 15.8°F-9.0°C 6.1°F-14.4°C 65% 6.9 mph NW11.1 kmh NW 10.4 mph16.7 kmh 30.35 in1027.8 mb - 0.00 in0.0 mm 0.00 in0.0 mm
11:20 AM 15.8°F-9.0°C 5.8°F-14.6°C 64% 6.9 mph NW11.1 kmh NW 10.4 mph16.7 kmh 30.34 in1027.4 mb - 0.00 in0.0 mm 0.00 in0.0 mm
11:25 AM 15.8°F-9.0°C 5.4°F-14.8°C 63% 8.1 mph NNE13.0 kmh NNE 13.8 mph22.2 kmh 30.35 in1027.8 mb - 0.00 in0.0 mm 0.00 in0.0 mm
11:30 AM 15.5°F-9.2°C 5.1°F-14.9°C 63% 8.1 mph NNW13.0 kmh NNW 4.6 mph7.4 kmh 30.34 in1027.4 mb - 0.00 in0.0 mm 0.00 in0.0 mm
11:35 AM 15.8°F-9.0°C 5.4°F-14.8°C 63% 5.8 mph N9.3 kmh N 5.8 mph9.3 kmh 30.35 in1027.8 mb - 0.00 in0.0 mm 0.00 in0.0 mm
11:40 AM 15.8°F-9.0°C 5.4°F-14.8°C 63% 5.8 mph W9.3 kmh W 9.2 mph14.8 kmh 30.34 in1027.4 mb - 0.00 in0.0 mm 0.00 in0.0 mm
11:45 AM 15.8°F-9.0°C 5.4°F-14.8°C 63% 8.1 mph N13.0 kmh N 8.1 mph13.0 kmh 30.34 in1027.4 mb - 0.00 in0.0 mm 0.00 in0.0 mm
11:50 AM 15.8°F-9.0°C 4.7°F-15.2°C 61% 6.9 mph NW11.1 kmh NW 10.4 mph16.7 kmh 30.35 in1027.8 mb - 0.00 in0.0 mm 0.00 in0.0 mm
11:55 AM 15.8°F-9.0°C 4.7°F-15.2°C 61% 6.9 mph N11.1 kmh N 5.8 mph9.3 kmh 30.34 in1027.4 mb - 0.00 in0.0 mm 0.00 in0.0 mm
12:00 PM 15.8°F-9.0°C 4.7°F-15.2°C 61% 6.9 mph NE11.1 kmh NE 9.2 mph14.8 kmh 30.34 in1027.4 mb - 0.00 in0.0 mm 0.00 in0.0 mm
12:10 PM 15.8°F-9.0°C 4.7°F-15.2°C 61% 5.8 mph NNE9.3 kmh NNE 8.1 mph13.0 kmh 30.34 in1027.4 mb - 0.00 in0.0 mm 0.00 in0.0 mm
12:15 PM 15.8°F-9.0°C 4.7°F-15.2°C 61% 6.9 mph NNW11.1 kmh NNW 17.3 mph27.8 kmh 30.34 in1027.4 mb - 0.00 in0.0 mm 0.00 in0.0 mm
12:20 PM 15.8°F-9.0°C 4.4°F-15.3°C 60% 9.2 mph NE14.8 kmh NE 12.7 mph20.4 kmh 30.35 in1027.8 mb - 0.00 in0.0 mm 0.00 in0.0 mm
12:25 PM 15.8°F-9.0°C 4.4°F-15.3°C 60% 8.1 mph NE13.0 kmh NE 15.0 mph24.1 kmh 30.34 in1027.4 mb - 0.00 in0.0 mm 0.00 in0.0 mm
12:30 PM 15.8°F-9.0°C 4.7°F-15.2°C 61% 5.8 mph N9.3 kmh N 8.1 mph13.0 kmh 30.34 in1027.4 mb - 0.00 in0.0 mm 0.00 in0.0 mm
12:35 PM 15.8°F-9.0°C 4.4°F-15.3°C 60% 6.9 mph N11.1 kmh N 9.2 mph14.8 kmh 30.33 in1027.1 mb - 0.00 in0.0 mm 0.00 in0.0 mm
12:40 PM 15.8°F-9.0°C 4.7°F-15.2°C 61% 5.8 mph ESE9.3 kmh ESE 8.1 mph13.0 kmh 30.33 in1027.1 mb - 0.00 in0.0 mm 0.00 in0.0 mm
12:45 PM 15.8°F-9.0°C 4.7°F-15.2°C 61% 5.8 mph N9.3 kmh N 9.2 mph14.8 kmh 30.33 in1027.1 mb - 0.00 in0.0 mm 0.00 in0.0 mm
12:50 PM 17.6°F-8.0°C 6.1°F-14.4°C 60% 5.8 mph N9.3 kmh N 10.4 mph16.7 kmh 30.33 in1027.1 mb - 0.00 in0.0 mm 0.00 in0.0 mm
12:55 PM 17.3°F-8.2°C 6.2°F-14.3°C 61% 5.8 mph N9.3 kmh N 6.9 mph11.1 kmh 30.33 in1027.1 mb - 0.00 in0.0 mm 0.00 in0.0 mm
01:00 PM 15.8°F-9.0°C 4.0°F-15.6°C 59% 5.8 mph 9.3 kmh 6.9 mph11.1 kmh 30.33 in1027.1 mb - 0.00 in0.0 mm 0.00 in0.0 mm
01:10 PM 17.6°F-8.0°C 6.1°F-14.4°C 60% 5.8 mph WNW9.3 kmh WNW 9.2 mph14.8 kmh 30.34 in1027.4 mb - 0.00 in0.0 mm 0.00 in0.0 mm
01:15 PM 17.6°F-8.0°C 6.1°F-14.4°C 60% 5.8 mph NW9.3 kmh NW 8.1 mph13.0 kmh 30.35 in1027.8 mb - 0.00 in0.0 mm 0.00 in0.0 mm
01:20 PM 15.8°F-9.0°C 3.6°F-15.8°C 58% 8.1 mph WNW13.0 kmh WNW 10.4 mph16.7 kmh 30.34 in1027.4 mb - 0.00 in0.0 mm 0.00 in0.0 mm
01:25 PM 17.6°F-8.0°C 4.5°F-15.3°C 56% 5.8 mph N9.3 kmh N 9.2 mph14.8 kmh 30.34 in1027.4 mb - 0.00 in0.0 mm 0.00 in0.0 mm
01:30 PM 17.6°F-8.0°C 4.5°F-15.3°C 56% 8.1 mph N13.0 kmh N 11.5 mph18.5 kmh 30.33 in1027.1 mb - 0.00 in0.0 mm 0.00 in0.0 mm
01:35 PM 15.8°F-9.0°C 2.5°F-16.4°C 55% 8.1 mph N13.0 kmh N 12.7 mph20.4 kmh 30.34 in1027.4 mb - 0.00 in0.0 mm 0.00 in0.0 mm
01:40 PM 15.8°F-9.0°C 2.5°F-16.4°C 55% 9.2 mph N14.8 kmh N 10.4 mph16.7 kmh 30.33 in1027.1 mb - 0.00 in0.0 mm 0.00 in0.0 mm
01:45 PM 15.8°F-9.0°C 2.5°F-16.4°C 55% 6.9 mph N11.1 kmh N 10.4 mph16.7 kmh 30.34 in1027.4 mb - 0.00 in0.0 mm 0.00 in0.0 mm
01:50 PM 17.3°F-8.2°C 5.0°F-15.0°C 58% 6.9 mph NE11.1 kmh NE 9.2 mph14.8 kmh 30.34 in1027.4 mb - 0.00 in0.0 mm 0.00 in0.0 mm
01:55 PM 17.6°F-8.0°C 4.5°F-15.3°C 56% 6.9 mph NW11.1 kmh NW 5.8 mph9.3 kmh 30.34 in1027.4 mb - 0.00 in0.0 mm 0.00 in0.0 mm
02:00 PM 17.6°F-8.0°C 4.2°F-15.4°C 55% 5.8 mph N9.3 kmh N 6.9 mph11.1 kmh 30.35 in1027.8 mb - 0.00 in0.0 mm 0.00 in0.0 mm
02:10 PM 17.6°F-8.0°C 4.2°F-15.4°C 55% 5.8 mph NNE9.3 kmh NNE 5.8 mph9.3 kmh 30.35 in1027.8 mb - 0.00 in0.0 mm 0.00 in0.0 mm
02:15 PM 17.6°F-8.0°C 4.5°F-15.3°C 56% 6.9 mph N11.1 kmh N 6.9 mph11.1 kmh 30.35 in1027.8 mb - 0.00 in0.0 mm 0.00 in0.0 mm
02:20 PM 17.6°F-8.0°C 5.3°F-14.8°C 58% 5.8 mph N9.3 kmh N 11.5 mph18.5 kmh 30.36 in1028.1 mb - 0.00 in0.0 mm 0.00 in0.0 mm
02:25 PM 15.8°F-9.0°C 1.7°F-16.8°C 53% 9.2 mph N14.8 kmh N 6.9 mph11.1 kmh 30.36 in1028.1 mb - 0.00 in0.0 mm 0.00 in0.0 mm
02:30 PM 17.6°F-8.0°C 4.2°F-15.4°C 55% 4.6 mph NNW7.4 kmh NNW 6.9 mph11.1 kmh 30.37 in1028.4 mb - 0.00 in0.0 mm 0.00 in0.0 mm
02:35 PM 17.6°F-8.0°C 4.2°F-15.4°C 55% 4.6 mph NE7.4 kmh NE 4.6 mph7.4 kmh 30.36 in1028.1 mb - 0.00 in0.0 mm 0.00 in0.0 mm
02:40 PM 17.6°F-8.0°C 4.2°F-15.4°C 55% 6.9 mph NW11.1 kmh NW 9.2 mph14.8 kmh 30.37 in1028.4 mb - 0.00 in0.0 mm 0.00 in0.0 mm
02:45 PM 15.8°F-9.0°C 2.5°F-16.4°C 55% 5.8 mph NNW9.3 kmh NNW 8.1 mph13.0 kmh 30.37 in1028.4 mb - 0.00 in0.0 mm 0.00 in0.0 mm
02:50 PM 15.8°F-9.0°C 2.5°F-16.4°C 55% 6.9 mph NNW11.1 kmh NNW 10.4 mph16.7 kmh 30.37 in1028.4 mb - 0.00 in0.0 mm 0.00 in0.0 mm
02:55 PM 15.8°F-9.0°C 2.9°F-16.2°C 56% 6.9 mph NNE11.1 kmh NNE 8.1 mph13.0 kmh 30.38 in1028.8 mb - 0.00 in0.0 mm 0.00 in0.0 mm
03:00 PM 15.8°F-9.0°C 2.9°F-16.2°C 56% 5.8 mph NNE9.3 kmh NNE 9.2 mph14.8 kmh 30.38 in1028.8 mb - 0.00 in0.0 mm 0.00 in0.0 mm
03:10 PM 15.8°F-9.0°C 4.0°F-15.6°C 59% 4.6 mph NNE7.4 kmh NNE 6.9 mph11.1 kmh 30.38 in1028.8 mb - 0.00 in0.0 mm 0.00 in0.0 mm
03:15 PM 15.8°F-9.0°C 4.0°F-15.6°C 59% 4.6 mph N7.4 kmh N 9.2 mph14.8 kmh 30.38 in1028.8 mb - 0.00 in0.0 mm 0.00 in0.0 mm
03:20 PM 15.8°F-9.0°C 4.0°F-15.6°C 59% 5.8 mph NE9.3 kmh NE 5.8 mph9.3 kmh 30.39 in1029.1 mb - 0.00 in0.0 mm 0.00 in0.0 mm
03:25 PM 15.8°F-9.0°C 3.2°F-16.0°C 57% 6.9 mph WNW11.1 kmh WNW 12.7 mph20.4 kmh 30.39 in1029.1 mb - 0.00 in0.0 mm 0.00 in0.0 mm
03:30 PM 15.8°F-9.0°C 2.5°F-16.4°C 55% 6.9 mph E11.1 kmh E 5.8 mph9.3 kmh 30.40 in1029.5 mb - 0.00 in0.0 mm 0.00 in0.0 mm
03:35 PM 15.8°F-9.0°C 2.1°F-16.6°C 54% 5.8 mph N9.3 kmh N 6.9 mph11.1 kmh 30.40 in1029.5 mb - 0.00 in0.0 mm 0.00 in0.0 mm
03:40 PM 15.8°F-9.0°C 2.1°F-16.6°C 54% 6.9 mph NE11.1 kmh NE 12.7 mph20.4 kmh 30.40 in1029.5 mb - 0.00 in0.0 mm 0.00 in0.0 mm
03:45 PM 14.0°F-10.0°C 0.8°F-17.3°C 55% 6.9 mph N11.1 kmh N 5.8 mph9.3 kmh 30.41 in1029.8 mb - 0.00 in0.0 mm 0.00 in0.0 mm
03:50 PM 14.0°F-10.0°C 1.2°F-17.1°C 56% 4.6 mph NNW7.4 kmh NNW 6.9 mph11.1 kmh 30.41 in1029.8 mb - 0.00 in0.0 mm 0.00 in0.0 mm
03:55 PM 14.0°F-10.0°C 0.8°F-17.3°C 55% 4.6 mph WNW7.4 kmh WNW 4.6 mph7.4 kmh 30.42 in1030.1 mb - 0.00 in0.0 mm 0.00 in0.0 mm
04:00 PM 14.0°F-10.0°C 0.8°F-17.3°C 55% 5.8 mph NNE9.3 kmh NNE 5.8 mph9.3 kmh 30.42 in1030.1 mb - 0.00 in0.0 mm 0.00 in0.0 mm
04:10 PM 14.0°F-10.0°C 0.8°F-17.3°C 55% 4.6 mph NNE7.4 kmh NNE 5.8 mph9.3 kmh 30.44 in1030.8 mb - 0.00 in0.0 mm 0.00 in0.0 mm
04:15 PM 14.0°F-10.0°C 0.8°F-17.3°C 55% 4.6 mph NE7.4 kmh NE 5.8 mph9.3 kmh 30.44 in1030.8 mb - 0.00 in0.0 mm 0.00 in0.0 mm
04:20 PM 14.0°F-10.0°C 0.8°F-17.3°C 55% 4.6 mph WNW7.4 kmh WNW 5.8 mph9.3 kmh 30.45 in1031.2 mb - 0.00 in0.0 mm 0.00 in0.0 mm
04:25 PM 14.0°F-10.0°C 1.9°F-16.7°C 58% 3.5 mph NNW5.6 kmh NNW 4.6 mph7.4 kmh 30.44 in1030.8 mb - 0.00 in0.0 mm 0.00 in0.0 mm
04:30 PM 14.0°F-10.0°C 2.3°F-16.5°C 59% 3.5 mph WNW5.6 kmh WNW 5.8 mph9.3 kmh 30.45 in1031.2 mb - 0.00 in0.0 mm 0.00 in0.0 mm
04:35 PM 14.0°F-10.0°C 2.3°F-16.5°C 59% 3.5 mph NW5.6 kmh NW 4.6 mph7.4 kmh 30.45 in1031.2 mb - 0.00 in0.0 mm 0.00 in0.0 mm
04:40 PM 12.2°F-11.0°C 0.9°F-17.3°C 60% 3.5 mph N5.6 kmh N 3.5 mph5.6 kmh 30.45 in1031.2 mb - 0.00 in0.0 mm 0.00 in0.0 mm
04:45 PM 12.2°F-11.0°C 0.9°F-17.3°C 60% 3.5 mph NW5.6 kmh NW 8.1 mph13.0 kmh 30.45 in1031.2 mb - 0.00 in0.0 mm 0.00 in0.0 mm
04:50 PM 12.2°F-11.0°C 0.9°F-17.3°C 60% 4.6 mph WNW7.4 kmh WNW 5.8 mph9.3 kmh 30.45 in1031.2 mb - 0.00 in0.0 mm 0.00 in0.0 mm
04:55 PM 12.2°F-11.0°C 0.2°F-17.7°C 58% 5.8 mph N9.3 kmh N 9.2 mph14.8 kmh 30.46 in1031.5 mb - 0.00 in0.0 mm 0.00 in0.0 mm
05:00 PM 12.2°F-11.0°C 0.2°F-17.7°C 58% 4.6 mph NW7.4 kmh NW 8.1 mph13.0 kmh 30.46 in1031.5 mb - 0.00 in0.0 mm 0.00 in0.0 mm
05:10 PM 12.2°F-11.0°C 0.9°F-17.3°C 60% 3.5 mph NNE5.6 kmh NNE 5.8 mph9.3 kmh 30.47 in1031.8 mb - 0.00 in0.0 mm 0.00 in0.0 mm
05:15 PM 12.2°F-11.0°C 0.9°F-17.3°C 60% 2.3 mph NNE3.7 kmh NNE 3.5 mph5.6 kmh 30.47 in1031.8 mb - 0.00 in0.0 mm 0.00 in0.0 mm
05:20 PM 12.2°F-11.0°C 1.3°F-17.1°C 61% 3.5 mph N5.6 kmh N 4.6 mph7.4 kmh 30.47 in1031.8 mb - 0.00 in0.0 mm 0.00 in0.0 mm
05:25 PM 12.2°F-11.0°C 1.3°F-17.1°C 61% 4.6 mph WNW7.4 kmh WNW 3.5 mph5.6 kmh 30.47 in1031.8 mb - 0.00 in0.0 mm 0.00 in0.0 mm
05:30 PM 12.2°F-11.0°C 1.3°F-17.1°C 61% 4.6 mph NW7.4 kmh NW 6.9 mph11.1 kmh 30.47 in1031.8 mb - 0.00 in0.0 mm 0.00 in0.0 mm
05:35 PM 12.2°F-11.0°C 1.3°F-17.1°C 61% 4.6 mph WNW7.4 kmh WNW 6.9 mph11.1 kmh 30.47 in1031.8 mb - 0.00 in0.0 mm 0.00 in0.0 mm
05:40 PM 12.2°F-11.0°C 1.3°F-17.1°C 61% 3.5 mph NW5.6 kmh NW 6.9 mph11.1 kmh 30.47 in1031.8 mb - 0.00 in0.0 mm 0.00 in0.0 mm
05:45 PM 12.2°F-11.0°C 1.3°F-17.1°C 61% 4.6 mph NW7.4 kmh NW 4.6 mph7.4 kmh 30.47 in1031.8 mb - 0.00 in0.0 mm 0.00 in0.0 mm
05:50 PM 12.2°F-11.0°C 2.0°F-16.7°C 63% 3.5 mph NW5.6 kmh NW 3.5 mph5.6 kmh 30.49 in1032.5 mb - 0.00 in0.0 mm 0.00 in0.0 mm
05:55 PM 12.2°F-11.0°C 2.0°F-16.7°C 63% 3.5 mph NW5.6 kmh NW 6.9 mph11.1 kmh 30.49 in1032.5 mb - 0.00 in0.0 mm 0.00 in0.0 mm
06:00 PM 12.2°F-11.0°C 2.0°F-16.7°C 63% 3.5 mph NW5.6 kmh NW 3.5 mph5.6 kmh 30.49 in1032.5 mb - 0.00 in0.0 mm 0.00 in0.0 mm
06:10 PM 12.2°F-11.0°C 2.0°F-16.7°C 63% 3.5 mph NW5.6 kmh NW 4.6 mph7.4 kmh 30.50 in1032.8 mb - 0.00 in0.0 mm 0.00 in0.0 mm
06:15 PM 12.2°F-11.0°C 2.0°F-16.7°C 63% 3.5 mph N5.6 kmh N 5.8 mph9.3 kmh 30.50 in1032.8 mb - 0.00 in0.0 mm 0.00 in0.0 mm
06:20 PM 12.2°F-11.0°C 2.7°F-16.3°C 65% 3.5 mph NW5.6 kmh NW 3.5 mph5.6 kmh 30.49 in1032.5 mb - 0.00 in0.0 mm 0.00 in0.0 mm
06:25 PM 12.2°F-11.0°C 2.7°F-16.3°C 65% 3.5 mph N5.6 kmh N 4.6 mph7.4 kmh 30.49 in1032.5 mb - 0.00 in0.0 mm 0.00 in0.0 mm
06:30 PM 12.2°F-11.0°C 2.7°F-16.3°C 65% 3.5 mph NNW5.6 kmh NNW 4.6 mph7.4 kmh 30.49 in1032.5 mb - 0.00 in0.0 mm 0.00 in0.0 mm
06:35 PM 12.2°F-11.0°C 2.7°F-16.3°C 65% 3.5 mph N5.6 kmh N 3.5 mph5.6 kmh 30.49 in1032.5 mb - 0.00 in0.0 mm 0.00 in0.0 mm
06:40 PM 12.2°F-11.0°C 3.0°F-16.1°C 66% 3.5 mph NNW5.6 kmh NNW 3.5 mph5.6 kmh 30.50 in1032.8 mb - 0.00 in0.0 mm 0.00 in0.0 mm
06:45 PM 10.4°F-12.0°C 1.3°F-17.1°C 66% 3.5 mph NNW5.6 kmh NNW 3.5 mph5.6 kmh 30.49 in1032.5 mb - 0.00 in0.0 mm 0.00 in0.0 mm
06:50 PM 10.4°F-12.0°C 2.2°F-16.6°C 69% 2.3 mph NW3.7 kmh NW 2.3 mph3.7 kmh 30.50 in1032.8 mb - 0.00 in0.0 mm 0.00 in0.0 mm
06:55 PM 10.4°F-12.0°C 2.2°F-16.6°C 69% 3.5 mph NW5.6 kmh NW 3.5 mph5.6 kmh 30.49 in1032.5 mb - 0.00 in0.0 mm 0.00 in0.0 mm
07:00 PM 10.4°F-12.0°C 2.2°F-16.6°C 69% 3.5 mph W5.6 kmh W 3.5 mph5.6 kmh 30.49 in1032.5 mb - 0.00 in0.0 mm 0.00 in0.0 mm
07:10 PM 10.4°F-12.0°C 2.2°F-16.6°C 69% 3.5 mph NW5.6 kmh NW 6.9 mph11.1 kmh 30.49 in1032.5 mb - 0.00 in0.0 mm 0.00 in0.0 mm
07:15 PM 10.4°F-12.0°C 2.2°F-16.6°C 69% 3.5 mph NW5.6 kmh NW 6.9 mph11.1 kmh 30.49 in1032.5 mb - 0.00 in0.0 mm 0.00 in0.0 mm
07:20 PM 10.4°F-12.0°C 2.2°F-16.6°C 69% 3.5 mph N5.6 kmh N 4.6 mph7.4 kmh 30.49 in1032.5 mb - 0.00 in0.0 mm 0.00 in0.0 mm
07:25 PM 10.4°F-12.0°C 2.2°F-16.6°C 69% 4.6 mph N7.4 kmh N 3.5 mph5.6 kmh 30.50 in1032.8 mb - 0.00 in0.0 mm 0.00 in0.0 mm
07:30 PM 10.4°F-12.0°C 2.2°F-16.6°C 69% 4.6 mph NW7.4 kmh NW 5.8 mph9.3 kmh 30.50 in1032.8 mb - 0.00 in0.0 mm 0.00 in0.0 mm
07:35 PM 10.4°F-12.0°C 2.2°F-16.6°C 69% 4.6 mph NNE7.4 kmh NNE 5.8 mph9.3 kmh 30.50 in1032.8 mb - 0.00 in0.0 mm 0.00 in0.0 mm
07:40 PM 10.4°F-12.0°C 2.2°F-16.6°C 69% 4.6 mph N7.4 kmh N 8.1 mph13.0 kmh 30.50 in1032.8 mb - 0.00 in0.0 mm 0.00 in0.0 mm
07:45 PM 10.4°F-12.0°C 1.9°F-16.7°C 68% 5.8 mph NW9.3 kmh NW 3.5 mph5.6 kmh 30.50 in1032.8 mb - 0.00 in0.0 mm 0.00 in0.0 mm
07:50 PM 10.4°F-12.0°C 2.2°F-16.6°C 69% 3.5 mph NW5.6 kmh NW 5.8 mph9.3 kmh 30.51 in1033.2 mb - 0.00 in0.0 mm 0.00 in0.0 mm
07:55 PM 10.4°F-12.0°C 2.2°F-16.6°C 69% 3.5 mph NW5.6 kmh NW 5.8 mph9.3 kmh 30.51 in1033.2 mb - 0.00 in0.0 mm 0.00 in0.0 mm
08:00 PM 10.4°F-12.0°C 2.5°F-16.4°C 70% 4.6 mph NW7.4 kmh NW 2.3 mph3.7 kmh 30.51 in1033.2 mb - 0.00 in0.0 mm 0.00 in0.0 mm
08:10 PM 10.4°F-12.0°C 2.5°F-16.4°C 70% 3.5 mph NW5.6 kmh NW 6.9 mph11.1 kmh 30.51 in1033.2 mb - 0.00 in0.0 mm 0.00 in0.0 mm
08:15 PM 10.4°F-12.0°C 2.5°F-16.4°C 70% 4.6 mph NW7.4 kmh NW 5.8 mph9.3 kmh 30.52 in1033.5 mb - 0.00 in0.0 mm 0.00 in0.0 mm
08:20 PM 10.4°F-12.0°C 2.5°F-16.4°C 70% 3.5 mph NW5.6 kmh NW 4.6 mph7.4 kmh 30.50 in1032.8 mb - 0.00 in0.0 mm 0.00 in0.0 mm
08:25 PM 10.4°F-12.0°C 2.5°F-16.4°C 70% 4.6 mph NNW7.4 kmh NNW 5.8 mph9.3 kmh 30.51 in1033.2 mb - 0.00 in0.0 mm 0.00 in0.0 mm
08:30 PM 10.4°F-12.0°C 2.5°F-16.4°C 70% 3.5 mph NW5.6 kmh NW 6.9 mph11.1 kmh 30.51 in1033.2 mb - 0.00 in0.0 mm 0.00 in0.0 mm
08:35 PM 10.4°F-12.0°C 2.5°F-16.4°C 70% 3.5 mph N5.6 kmh N 2.3 mph3.7 kmh 30.51 in1033.2 mb - 0.00 in0.0 mm 0.00 in0.0 mm
08:40 PM 8.6°F-13.0°C 1.4°F-17.0°C 72% 2.3 mph N3.7 kmh N 3.5 mph5.6 kmh 30.51 in1033.2 mb - 0.00 in0.0 mm 0.00 in0.0 mm
08:45 PM 8.6°F-13.0°C 1.7°F-16.8°C 73% 3.5 mph NW5.6 kmh NW 4.6 mph7.4 kmh 30.51 in1033.2 mb - 0.00 in0.0 mm 0.00 in0.0 mm
08:50 PM 8.6°F-13.0°C 1.7°F-16.8°C 73% 4.6 mph NW7.4 kmh NW 11.5 mph18.5 kmh 30.51 in1033.2 mb - 0.00 in0.0 mm 0.00 in0.0 mm
08:55 PM 8.6°F-13.0°C 1.1°F-17.2°C 71% 6.9 mph NW11.1 kmh NW 3.5 mph5.6 kmh 30.51 in1033.2 mb - 0.00 in0.0 mm 0.00 in0.0 mm
09:00 PM 8.6°F-13.0°C 1.7°F-16.8°C 73% 4.6 mph NW7.4 kmh NW 6.9 mph11.1 kmh 30.51 in1033.2 mb - 0.00 in0.0 mm 0.00 in0.0 mm
09:10 PM 8.6°F-13.0°C 2.0°F-16.7°C 74% 5.8 mph WNW9.3 kmh WNW 10.4 mph16.7 kmh 30.52 in1033.5 mb - 0.00 in0.0 mm 0.00 in0.0 mm
09:15 PM 8.6°F-13.0°C 2.3°F-16.5°C 75% 5.8 mph WNW9.3 kmh WNW 9.2 mph14.8 kmh 30.52 in1033.5 mb - 0.00 in0.0 mm 0.00 in0.0 mm
09:20 PM 8.6°F-13.0°C 2.3°F-16.5°C 75% 6.9 mph NW11.1 kmh NW 10.4 mph16.7 kmh 30.52 in1033.5 mb - 0.00 in0.0 mm 0.00 in0.0 mm
09:25 PM 8.6°F-13.0°C 2.3°F-16.5°C 75% 4.6 mph W7.4 kmh W 5.8 mph9.3 kmh 30.53 in1033.9 mb - 0.00 in0.0 mm 0.00 in0.0 mm
09:30 PM 8.6°F-13.0°C 2.3°F-16.5°C 75% 5.8 mph NW9.3 kmh NW 11.5 mph18.5 kmh 30.53 in1033.9 mb - 0.00 in0.0 mm 0.00 in0.0 mm
09:35 PM 8.6°F-13.0°C 2.6°F-16.3°C 76% 6.9 mph NW11.1 kmh NW 8.1 mph13.0 kmh 30.53 in1033.9 mb - 0.00 in0.0 mm 0.00 in0.0 mm
09:40 PM 8.6°F-13.0°C 2.6°F-16.3°C 76% 8.1 mph N13.0 kmh N 9.2 mph14.8 kmh 30.53 in1033.9 mb - 0.00 in0.0 mm 0.00 in0.0 mm
09:45 PM 8.6°F-13.0°C 2.6°F-16.3°C 76% 6.9 mph WNW11.1 kmh WNW 6.9 mph11.1 kmh 30.52 in1033.5 mb - 0.00 in0.0 mm 0.00 in0.0 mm
09:50 PM 8.6°F-13.0°C 2.6°F-16.3°C 76% 6.9 mph NNW11.1 kmh NNW 9.2 mph14.8 kmh 30.53 in1033.9 mb - 0.00 in0.0 mm 0.00 in0.0 mm
09:55 PM 8.6°F-13.0°C 2.6°F-16.3°C 76% 5.8 mph WNW9.3 kmh WNW 10.4 mph16.7 kmh 30.54 in1034.2 mb - 0.00 in0.0 mm 0.00 in0.0 mm
10:00 PM 8.6°F-13.0°C 2.3°F-16.5°C 75% 9.2 mph WNW14.8 kmh WNW 11.5 mph18.5 kmh 30.54 in1034.2 mb - 0.00 in0.0 mm 0.00 in0.0 mm
10:10 PM 6.8°F-14.0°C 0.6°F-17.4°C 75% 5.8 mph N9.3 kmh N 6.9 mph11.1 kmh 30.54 in1034.2 mb - 0.00 in0.0 mm 0.00 in0.0 mm
10:20 PM 6.8°F-14.0°C 0.8°F-17.3°C 76% 6.9 mph N11.1 kmh N 6.9 mph11.1 kmh 30.54 in1034.2 mb - 0.00 in0.0 mm 0.00 in0.0 mm
10:25 PM 6.8°F-14.0°C 0.8°F-17.3°C 76% 5.8 mph NW9.3 kmh NW 12.7 mph20.4 kmh 30.54 in1034.2 mb - 0.00 in0.0 mm 0.00 in0.0 mm
10:30 PM 6.8°F-14.0°C 0.6°F-17.4°C 75% 8.1 mph WSW13.0 kmh WSW 11.5 mph18.5 kmh 30.53 in1033.9 mb - 0.00 in0.0 mm 0.00 in0.0 mm
10:35 PM 6.8°F-14.0°C 0.6°F-17.4°C 75% 5.8 mph W9.3 kmh W 9.2 mph14.8 kmh 30.54 in1034.2 mb - 0.00 in0.0 mm 0.00 in0.0 mm
10:40 PM 6.8°F-14.0°C 0.6°F-17.4°C 75% 6.9 mph W11.1 kmh W 4.6 mph7.4 kmh 30.54 in1034.2 mb - 0.00 in0.0 mm 0.00 in0.0 mm
10:45 PM 6.8°F-14.0°C 0.6°F-17.4°C 75% 5.8 mph NNW9.3 kmh NNW 4.6 mph7.4 kmh 30.54 in1034.2 mb - 0.00 in0.0 mm 0.00 in0.0 mm
10:50 PM 6.8°F-14.0°C 0.8°F-17.3°C 76% 4.6 mph NW7.4 kmh NW 6.9 mph11.1 kmh 30.54 in1034.2 mb - 0.00 in0.0 mm 0.00 in0.0 mm
10:55 PM 6.8°F-14.0°C 0.8°F-17.3°C 76% 3.5 mph NW5.6 kmh NW 10.4 mph16.7 kmh 30.54 in1034.2 mb - 0.00 in0.0 mm 0.00 in0.0 mm
11:00 PM 6.8°F-14.0°C 0.8°F-17.3°C 76% 4.6 mph WNW7.4 kmh WNW 6.9 mph11.1 kmh 30.55 in1034.5 mb - 0.00 in0.0 mm 0.00 in0.0 mm
11:10 PM 6.8°F-14.0°C 0.8°F-17.3°C 76% 8.1 mph NW13.0 kmh NW 9.2 mph14.8 kmh 30.54 in1034.2 mb - 0.00 in0.0 mm 0.00 in0.0 mm
11:15 PM 6.8°F-14.0°C 0.8°F-17.3°C 76% 6.9 mph W11.1 kmh W 15.0 mph24.1 kmh 30.55 in1034.5 mb - 0.00 in0.0 mm 0.00 in0.0 mm
11:20 PM 6.8°F-14.0°C 0.8°F-17.3°C 76% 6.9 mph NW11.1 kmh NW 11.5 mph18.5 kmh 30.54 in1034.2 mb - 0.00 in0.0 mm 0.00 in0.0 mm
11:25 PM 6.8°F-14.0°C 1.4°F-17.0°C 78% 5.8 mph WNW9.3 kmh WNW 11.5 mph18.5 kmh 30.55 in1034.5 mb - 0.00 in0.0 mm 0.00 in0.0 mm
11:30 PM 6.8°F-14.0°C 1.4°F-17.0°C 78% 6.9 mph WNW11.1 kmh WNW 6.9 mph11.1 kmh 30.54 in1034.2 mb - 0.00 in0.0 mm 0.00 in0.0 mm
11:35 PM 6.8°F-14.0°C 1.7°F-16.8°C 79% 5.8 mph WNW9.3 kmh WNW 5.8 mph9.3 kmh 30.55 in1034.5 mb - 0.00 in0.0 mm 0.00 in0.0 mm
11:40 PM 5.0°F-15.0°C -0.1°F-17.8°C 79% 5.8 mph WNW9.3 kmh WNW 8.1 mph13.0 kmh 30.54 in1034.2 mb - 0.00 in0.0 mm 0.00 in0.0 mm
11:45 PM 5.0°F-15.0°C -0.1°F-17.8°C 79% 5.8 mph WNW9.3 kmh WNW 9.2 mph14.8 kmh 30.54 in1034.2 mb - 0.00 in0.0 mm 0.00 in0.0 mm
11:50 PM 5.0°F-15.0°C -0.1°F-17.8°C 79% 5.8 mph WNW9.3 kmh WNW 8.1 mph13.0 kmh 30.54 in1034.2 mb - 0.00 in0.0 mm 0.00 in0.0 mm
11:55 PM 5.0°F-15.0°C 0.2°F-17.7°C 80% 4.6 mph NW7.4 kmh NW 4.6 mph7.4 kmh 30.55 in1034.5 mb - 0.00 in0.0 mm 0.00 in0.0 mm